This is the latest recevied weather packets stored in our database for station/object VA3ECP. If no packets are shown the sender has not sent any weather packets the latest 10 day(s).
| Time | Temp. | Humidity | Pressure | Rain* | Wind** | Luminosity | Snow |
|---|---|---|---|---|---|---|---|
| 1777760422 | 9.44° C | 52% | 1012.2 hPa | 0 mm | - | - | - |
| 1777757429 | 9.44° C | 54% | 1012.1 hPa | 0 mm | - | - | - |
| 1777755032 | 10° C | 57% | 1012 hPa | 0 mm | - | - | - |
| 1777749627 | 8.89° C | 61% | 1012.2 hPa | 0 mm | - | - | - |
| 1777748445 | 9.44° C | 63% | 1012.2 hPa | 0 mm | - | - | - |
| 1777744821 | 9.44° C | 65% | 1012.1 hPa | 0 mm | - | - | - |
| 1777740633 | 8.33° C | 74% | 1012.3 hPa | 0 mm | - | - | - |
| 1777740021 | 7.78° C | 75% | 1012.4 hPa | 0 mm | - | - | - |
| 1777735819 | 8.89° C | 73% | 1012.6 hPa | 0 mm | - | - | - |
| 1777734031 | 8.33° C | 76% | 1012.8 hPa | 0 mm | - | - | - |
| 1777732822 | 7.22° C | 78% | 1013 hPa | 0 mm | - | - | - |
| 1777730423 | 7.22° C | 82% | 1013 hPa | 0 mm | - | - | - |
| 1777726824 | 5.56° C | 85% | 1013.1 hPa | 0 mm | - | - | - |
| 1777725632 | 5.56° C | 86% | 1013.1 hPa | 0 mm | - | - | - |
| 1777725025 | 5.56° C | 87% | 1013.1 hPa | 0 mm | - | - | - |
| 1777720230 | 3.89° C | 90% | 1012.6 hPa | 0 mm | - | - | - |
| 1777717221 | 3.89° C | 90% | 1012.1 hPa | 0 mm | - | - | - |
| 1777713034 | 3.33° C | 90% | 1011.8 hPa | 0 mm | - | - | - |
| 1777710025 | 3.33° C | 89% | 1011.7 hPa | 0 mm | - | - | - |
| 1777707631 | 3.33° C | 88% | 1011.8 hPa | 0 mm | - | - | - |
| 1777695028 | 6.67° C | 76% | 1012.1 hPa | 0 mm | - | - | - |
| 1777692020 | 7.22° C | 71% | 1012 hPa | 0 mm | - | - | - |
| 1777691442 | 7.22° C | 71% | 1012 hPa | 0 mm | - | - | - |
| 1777683022 | 7.78° C | 66% | 1012 hPa | 0 mm | - | - | - |
| 1777680029 | 9.44° C | 61% | 1011.7 hPa | 0 mm | - | - | - |
* Rain latest hour (hover to see other rain measurements)
** Current wind speed in m/s (hover to see current wind gust speed)